createdAt,value
2018-12-19T00:01:43.558Z,23.33
2018-12-19T00:04:09.834Z,19.10
2018-12-19T00:06:36.044Z,22.10
2018-12-19T00:09:04.582Z,17.03
2018-12-19T00:11:30.543Z,20.17
2018-12-19T00:13:56.494Z,15.20
2018-12-19T00:16:29.558Z,19.67
2018-12-19T00:18:55.616Z,19.80
2018-12-19T00:21:21.590Z,22.43
2018-12-19T00:23:47.653Z,19.17
2018-12-19T00:26:13.618Z,18.43
2018-12-19T00:28:39.578Z,17.77
2018-12-19T00:31:05.678Z,19.10
2018-12-19T00:33:31.640Z,20.13
2018-12-19T00:35:57.601Z,22.20
2018-12-19T00:38:23.567Z,21.67
2018-12-19T00:40:49.506Z,16.40
2018-12-19T00:43:15.468Z,15.63
2018-12-19T00:45:41.439Z,21.03
2018-12-19T00:48:07.496Z,23.37
2018-12-19T00:50:33.854Z,23.90
2018-12-19T00:52:59.805Z,26.53
2018-12-19T00:55:25.877Z,22.87
2018-12-19T00:57:52.341Z,20.80
2018-12-19T01:00:18.410Z,22.27
2018-12-19T01:02:44.356Z,20.53
2018-12-19T01:05:10.353Z,16.93
2018-12-19T01:07:36.303Z,21.47
2018-12-19T01:10:02.965Z,22.90
2018-12-19T01:12:28.913Z,22.13
2018-12-19T01:14:54.987Z,21.07
2018-12-19T01:17:20.928Z,18.37
2018-12-19T01:19:46.890Z,21.67
2018-12-19T01:22:12.874Z,21.13
2018-12-19T01:24:38.846Z,19.37
2018-12-19T01:27:04.947Z,21.73
2018-12-19T01:29:30.906Z,23.10
2018-12-19T01:31:56.859Z,21.37
2018-12-19T01:34:22.821Z,24.03
2018-12-19T01:36:48.777Z,19.50
2018-12-19T01:39:14.730Z,22.70
2018-12-19T01:41:40.699Z,21.50
2018-12-19T01:44:06.661Z,22.13
2018-12-19T01:46:32.722Z,24.57
2018-12-19T01:48:58.682Z,19.97
2018-12-19T01:51:25.055Z,22.07
2018-12-19T01:53:51.047Z,20.73
2018-12-19T01:56:17.093Z,24.03
2018-12-19T01:58:43.051Z,24.40
2018-12-19T02:01:08.989Z,22.33
2018-12-19T02:03:34.984Z,19.33
2018-12-19T02:06:00.928Z,20.93
2018-12-19T02:08:26.871Z,18.53
2018-12-19T02:10:52.865Z,27.47
2018-12-19T02:13:18.820Z,28.27
2018-12-19T02:15:44.789Z,17.20
2018-12-19T02:18:10.749Z,22.73
2018-12-19T02:20:36.717Z,27.10
2018-12-19T02:23:02.776Z,23.03
2018-12-19T02:25:28.829Z,22.83
2018-12-19T02:27:54.783Z,22.57
2018-12-19T02:30:27.663Z,20.00
2018-12-19T02:32:53.601Z,23.93
2018-12-19T02:35:19.560Z,20.50
2018-12-19T02:37:45.633Z,22.77
2018-12-19T02:40:11.790Z,22.00
2018-12-19T02:42:37.820Z,21.57
2018-12-19T02:45:03.977Z,31.00
2018-12-19T02:47:30.032Z,20.43
2018-12-19T02:49:55.981Z,22.37
2018-12-19T02:52:21.915Z,21.90
2018-12-19T02:54:47.998Z,20.83
2018-12-19T02:57:13.937Z,21.87
2018-12-19T02:59:39.903Z,22.63
2018-12-19T03:02:06.074Z,21.33
2018-12-19T03:04:32.109Z,21.30
2018-12-19T03:06:58.273Z,21.33
2018-12-19T03:09:24.450Z,21.90
2018-12-19T03:11:50.509Z,20.73
2018-12-19T03:14:16.564Z,21.23
2018-12-19T03:16:42.495Z,21.97
2018-12-19T03:19:08.647Z,17.80
2018-12-19T03:21:34.575Z,23.80
2018-12-19T03:24:00.523Z,22.23
2018-12-19T03:26:26.471Z,26.93
2018-12-19T03:28:52.420Z,22.33
2018-12-19T03:31:18.743Z,21.60
2018-12-19T03:33:44.915Z,27.10
2018-12-19T03:36:10.864Z,21.97
2018-12-19T03:38:37.003Z,27.10
2018-12-19T03:41:02.939Z,22.90
2018-12-19T03:43:28.978Z,22.70
2018-12-19T03:45:55.065Z,20.23
2018-12-19T03:48:27.247Z,18.07
2018-12-19T03:50:53.171Z,22.27
2018-12-19T03:53:19.389Z,19.17
2018-12-19T03:55:45.454Z,17.40
2018-12-19T03:58:11.391Z,20.77
2018-12-19T04:00:37.557Z,21.60
2018-12-19T04:03:03.487Z,23.73
2018-12-19T04:05:29.425Z,18.67
2018-12-19T04:07:55.859Z,18.20
2018-12-19T04:10:21.808Z,22.60
2018-12-19T04:12:47.745Z,18.80
2018-12-19T04:15:14.031Z,17.03
2018-12-19T04:17:39.952Z,20.50
2018-12-19T04:20:06.108Z,17.10
2018-12-19T04:22:32.079Z,19.63
2018-12-19T04:24:58.058Z,19.00
2018-12-19T04:27:24.110Z,15.50
2018-12-19T04:29:50.711Z,21.30
2018-12-19T04:32:16.760Z,17.57
2018-12-19T04:34:42.700Z,17.70
2018-12-19T04:37:08.964Z,20.53
2018-12-19T04:39:34.926Z,23.80
2018-12-19T04:42:00.993Z,17.00
2018-12-19T04:44:26.936Z,20.60
2018-12-19T04:46:52.903Z,19.97
2018-12-19T04:49:18.840Z,19.13
2018-12-19T04:51:44.795Z,18.37
2018-12-19T04:54:10.834Z,15.90
2018-12-19T04:56:36.939Z,17.77
2018-12-19T04:59:02.894Z,19.13
2018-12-19T05:01:28.953Z,18.93
2018-12-19T05:03:54.902Z,18.63
2018-12-19T05:06:20.984Z,18.70
2018-12-19T05:08:47.188Z,17.33
2018-12-19T05:11:13.125Z,21.53
2018-12-19T05:13:39.064Z,18.03
2018-12-19T05:16:04.996Z,19.10
2018-12-19T05:18:31.066Z,22.73
2018-12-19T05:20:57.121Z,21.50
2018-12-19T05:23:23.144Z,16.80
2018-12-19T05:25:49.133Z,19.27
2018-12-19T05:28:15.195Z,18.60
2018-12-19T05:30:41.260Z,21.63
2018-12-19T05:33:07.226Z,20.20
2018-12-19T05:35:33.322Z,20.97
2018-12-19T05:37:59.271Z,22.43
2018-12-19T05:40:25.339Z,22.47
2018-12-19T05:42:51.285Z,23.30
2018-12-19T05:45:17.331Z,18.97
2018-12-19T05:47:43.285Z,18.57
2018-12-19T05:50:09.993Z,22.87
2018-12-19T05:52:36.170Z,24.90
2018-12-19T05:55:03.165Z,23.73
2018-12-19T05:57:29.447Z,24.60
2018-12-19T05:59:55.413Z,23.43
2018-12-19T06:02:28.467Z,22.20
2018-12-19T06:04:54.457Z,19.20
2018-12-19T06:07:20.540Z,19.43
2018-12-19T06:09:46.510Z,16.77
2018-12-19T06:12:12.572Z,20.93
2018-12-19T06:14:38.512Z,21.03
2018-12-19T06:17:04.469Z,18.80
2018-12-19T06:19:30.425Z,24.90
2018-12-19T06:21:56.484Z,19.53
2018-12-19T06:24:22.437Z,24.73
2018-12-19T06:26:48.492Z,22.17
2018-12-19T06:29:14.458Z,22.87
2018-12-19T06:31:40.618Z,20.57
2018-12-19T06:34:06.569Z,20.63
2018-12-19T06:36:32.526Z,20.57
2018-12-19T06:38:58.712Z,20.40
2018-12-19T06:41:24.878Z,23.60
2018-12-19T06:43:50.843Z,19.20
2018-12-19T06:46:16.889Z,17.47
2018-12-19T06:48:42.971Z,25.23
2018-12-19T06:51:08.921Z,19.83
2018-12-19T06:53:34.870Z,22.57
2018-12-19T06:56:00.827Z,23.60
2018-12-19T06:58:26.790Z,19.67
2018-12-19T07:00:52.877Z,24.93
2018-12-19T07:03:18.840Z,20.87
2018-12-19T07:05:44.888Z,19.33
2018-12-19T07:08:17.914Z,17.87
2018-12-19T07:10:43.872Z,22.77
2018-12-19T07:13:09.941Z,22.20
2018-12-19T07:15:35.901Z,19.03
2018-12-19T07:18:02.052Z,26.20
2018-12-19T07:20:28.119Z,19.30
2018-12-19T07:22:54.059Z,17.53
2018-12-19T07:25:20.025Z,23.10
2018-12-19T07:27:45.970Z,20.33
2018-12-19T07:30:11.940Z,21.57
2018-12-19T07:32:37.901Z,21.53
2018-12-19T07:35:04.369Z,23.30
2018-12-19T07:37:30.530Z,19.33
2018-12-19T07:39:56.581Z,24.93
2018-12-19T07:42:22.511Z,20.33
2018-12-19T07:44:48.587Z,20.00
2018-12-19T07:47:14.548Z,21.00
2018-12-19T07:49:40.621Z,17.97
2018-12-19T07:52:06.679Z,19.13
2018-12-19T07:54:32.837Z,20.93
2018-12-19T07:56:58.809Z,19.00
2018-12-19T07:59:24.788Z,19.90
2018-12-19T08:01:50.850Z,17.00
2018-12-19T08:04:17.003Z,17.50
2018-12-19T08:06:43.171Z,18.17
2018-12-19T08:09:09.107Z,20.17
2018-12-19T08:11:35.276Z,20.27
2018-12-19T08:14:01.739Z,18.87
2018-12-19T08:16:27.685Z,19.27
2018-12-19T08:18:53.619Z,21.23
2018-12-19T08:21:19.684Z,19.50
2018-12-19T08:23:45.749Z,19.40
2018-12-19T08:26:11.712Z,17.03
2018-12-19T08:28:38.997Z,17.67
2018-12-19T08:31:05.167Z,16.90
2018-12-19T08:33:31.104Z,18.00
2018-12-19T08:35:57.158Z,17.50
2018-12-19T08:38:23.205Z,15.40
2018-12-19T08:40:58.936Z,16.60
2018-12-19T08:43:24.277Z,17.77
2018-12-19T08:45:50.667Z,17.97
2018-12-19T08:48:16.624Z,19.27
2018-12-19T08:50:42.583Z,18.17
2018-12-19T08:53:11.536Z,18.60
2018-12-19T08:55:37.534Z,19.03
2018-12-19T08:58:03.620Z,17.20
2018-12-19T09:00:29.788Z,19.93
2018-12-19T09:02:55.719Z,16.30
2018-12-19T09:05:21.790Z,16.90
2018-12-19T09:07:47.747Z,16.37
2018-12-19T09:10:13.813Z,18.33
2018-12-19T09:12:40.129Z,18.67
2018-12-19T09:15:06.186Z,24.03
2018-12-19T09:17:32.259Z,22.90
2018-12-19T09:19:58.536Z,15.53
2018-12-19T09:22:24.706Z,15.17
2018-12-19T09:24:50.885Z,14.37
2018-12-19T09:27:16.864Z,14.30
2018-12-19T09:29:42.803Z,13.70
2018-12-19T09:32:08.875Z,17.97
2018-12-19T09:34:34.831Z,17.03
2018-12-19T09:37:00.904Z,19.07
2018-12-19T09:39:26.970Z,20.30
2018-12-19T09:41:52.909Z,17.53
2018-12-19T09:44:18.968Z,18.10
2018-12-19T09:46:44.912Z,15.67
2018-12-19T09:49:12.635Z,16.47
2018-12-19T09:51:38.828Z,14.50
2018-12-19T09:54:04.777Z,15.63
2018-12-19T09:56:30.737Z,16.27
2018-12-19T09:58:56.719Z,17.40
2018-12-19T10:01:22.694Z,15.10
2018-12-19T10:03:48.645Z,14.83
2018-12-19T10:06:14.906Z,18.80
2018-12-19T10:08:40.966Z,18.57
2018-12-19T10:11:07.017Z,25.73
2018-12-19T10:13:33.082Z,16.87
2018-12-19T10:15:59.033Z,19.10
2018-12-19T10:18:24.997Z,23.57
2018-12-19T10:20:51.064Z,13.17
2018-12-19T10:23:17.281Z,15.27
2018-12-19T10:25:43.332Z,17.30
2018-12-19T10:28:09.278Z,18.23
2018-12-19T10:30:37.267Z,18.57
2018-12-19T10:33:03.327Z,18.77
2018-12-19T10:35:29.383Z,19.17
2018-12-19T10:37:55.583Z,17.47
2018-12-19T10:40:21.649Z,16.33
2018-12-19T10:42:47.629Z,19.47
2018-12-19T10:45:13.613Z,17.80
2018-12-19T10:47:39.688Z,17.60
2018-12-19T10:50:06.560Z,16.37
2018-12-19T10:52:32.616Z,15.67
2018-12-19T10:54:58.569Z,19.43
2018-12-19T10:57:24.528Z,15.77
2018-12-19T10:59:50.485Z,16.50
2018-12-19T11:02:16.445Z,21.10
2018-12-19T11:04:42.641Z,18.30
2018-12-19T11:07:08.579Z,17.57
2018-12-19T11:09:34.553Z,16.57
2018-12-19T11:12:00.718Z,19.97
2018-12-19T11:14:27.002Z,23.57
2018-12-19T11:16:53.157Z,19.30
2018-12-19T11:19:19.105Z,18.50
2018-12-19T11:21:45.448Z,20.97
2018-12-19T11:24:11.422Z,16.27
2018-12-19T11:26:37.496Z,15.20
2018-12-19T11:29:03.553Z,14.07
2018-12-19T11:31:29.623Z,18.07
2018-12-19T11:33:55.567Z,19.30
2018-12-19T11:36:21.518Z,23.50
2018-12-19T11:38:47.588Z,20.10
2018-12-19T11:41:13.548Z,20.70
2018-12-19T11:43:46.442Z,17.90
2018-12-19T11:46:12.517Z,19.03
2018-12-19T11:48:38.719Z,23.67
2018-12-19T11:51:05.221Z,19.63
2018-12-19T11:53:31.210Z,18.47
2018-12-19T11:55:57.281Z,15.30
2018-12-19T11:58:23.221Z,18.57
2018-12-19T12:00:49.388Z,15.90
2018-12-19T12:03:15.423Z,16.90
2018-12-19T12:05:41.371Z,16.83
2018-12-19T12:08:14.277Z,19.10
2018-12-19T12:10:40.240Z,21.60
2018-12-19T12:13:06.180Z,18.37
2018-12-19T12:15:39.387Z,19.23
2018-12-19T12:18:05.319Z,26.43
2018-12-19T12:20:35.260Z,18.37
2018-12-19T12:23:01.188Z,19.97
2018-12-19T12:25:27.175Z,18.40
2018-12-19T12:27:54.133Z,21.57
2018-12-19T12:30:20.285Z,24.67
2018-12-19T12:32:46.349Z,20.03
2018-12-19T12:35:12.299Z,19.60
2018-12-19T12:37:38.336Z,20.80
2018-12-19T12:40:06.728Z,20.40
2018-12-19T12:42:32.823Z,20.50
2018-12-19T12:44:58.882Z,26.33
2018-12-19T12:47:25.468Z,16.90
2018-12-19T12:49:51.560Z,18.27
2018-12-19T12:52:17.524Z,22.23
2018-12-19T12:54:43.623Z,19.00
2018-12-19T12:57:09.591Z,22.40
2018-12-19T12:59:35.724Z,23.47
2018-12-19T13:02:01.669Z,21.70
2018-12-19T13:04:27.602Z,23.13
2018-12-19T13:06:53.705Z,24.70
2018-12-19T13:09:19.781Z,21.53
2018-12-19T13:11:58.668Z,22.27
2018-12-19T13:14:20.725Z,28.23
2018-12-19T13:16:46.759Z,21.60
2018-12-19T13:19:12.711Z,26.93
2018-12-19T13:21:39.102Z,23.97
2018-12-19T13:24:05.161Z,25.47
2018-12-19T13:26:31.207Z,26.13
2018-12-19T13:28:57.192Z,19.07
2018-12-19T13:31:23.232Z,23.33
2018-12-19T13:33:49.176Z,20.47
2018-12-19T13:36:15.326Z,21.77
2018-12-19T13:38:41.387Z,25.30
2018-12-19T13:41:07.335Z,25.93
2018-12-19T13:43:33.294Z,27.27
2018-12-19T13:45:59.239Z,25.30
2018-12-19T13:48:25.314Z,20.60
2018-12-19T13:50:51.361Z,22.53
2018-12-19T13:53:17.313Z,31.67
2018-12-19T13:55:43.283Z,22.40
2018-12-19T13:58:09.841Z,21.87
2018-12-19T14:00:35.832Z,22.73
2018-12-19T14:03:01.888Z,20.67
2018-12-19T14:05:27.950Z,18.33
2018-12-19T14:07:53.885Z,18.73
2018-12-19T14:10:26.894Z,20.00
2018-12-19T14:12:52.833Z,17.80
2018-12-19T14:15:19.077Z,19.50
2018-12-19T14:17:45.129Z,20.43
2018-12-19T14:20:11.108Z,23.13
2018-12-19T14:22:37.057Z,17.17
2018-12-19T14:25:03.617Z,18.60
2018-12-19T14:27:29.582Z,17.57
2018-12-19T14:29:55.535Z,17.13
2018-12-19T14:32:21.616Z,16.57
2018-12-19T14:34:47.617Z,17.57
2018-12-19T14:37:13.672Z,18.70
2018-12-19T14:39:39.625Z,28.20
2018-12-19T14:42:05.776Z,24.23
2018-12-19T14:44:31.856Z,20.83
2018-12-19T14:46:57.912Z,19.67
2018-12-19T14:49:23.861Z,23.27
2018-12-19T14:51:49.801Z,23.17
2018-12-19T14:54:15.903Z,19.97
2018-12-19T14:56:48.804Z,21.50
2018-12-19T14:59:14.983Z,19.80
2018-12-19T15:01:40.960Z,18.33
2018-12-19T15:04:07.012Z,19.13
2018-12-19T15:06:33.186Z,18.67
2018-12-19T15:08:59.135Z,23.17
2018-12-19T15:11:25.212Z,19.37
2018-12-19T15:13:51.276Z,17.63
2018-12-19T15:16:19.353Z,18.13
2018-12-19T15:18:45.313Z,20.33
2018-12-19T15:21:18.245Z,17.10
2018-12-19T15:23:44.306Z,17.37
2018-12-19T15:26:10.464Z,18.40
2018-12-19T15:28:36.423Z,26.73
2018-12-19T15:31:02.470Z,20.57
2018-12-19T15:33:28.445Z,16.93
2018-12-19T15:35:54.709Z,23.33
2018-12-19T15:38:20.661Z,16.73
2018-12-19T15:40:46.592Z,17.20
2018-12-19T15:43:12.523Z,22.27
2018-12-19T15:45:38.759Z,17.87
2018-12-19T15:48:04.719Z,25.07
2018-12-19T15:50:30.668Z,22.77
2018-12-19T15:52:56.713Z,15.70
2018-12-19T15:55:22.759Z,17.60
2018-12-19T15:57:48.717Z,22.20
2018-12-19T16:00:15.769Z,19.57
2018-12-19T16:02:42.122Z,18.13
2018-12-19T16:05:08.209Z,14.70
2018-12-19T16:07:34.160Z,15.73
2018-12-19T16:10:08.784Z,16.07
2018-12-19T16:12:39.249Z,18.63
2018-12-19T16:15:04.296Z,21.10
2018-12-19T16:17:30.349Z,16.93
2018-12-19T16:19:56.554Z,19.13
2018-12-19T16:22:22.508Z,18.33
2018-12-19T16:24:48.574Z,18.77
2018-12-19T16:27:14.522Z,18.13
2018-12-19T16:29:40.915Z,17.43
2018-12-19T16:32:06.981Z,18.17
2018-12-19T16:34:39.980Z,21.70
2018-12-19T16:37:06.048Z,26.13
2018-12-19T16:39:32.400Z,24.73
2018-12-19T16:41:58.332Z,17.13
2018-12-19T16:44:24.674Z,28.63
2018-12-19T16:46:50.619Z,14.20
2018-12-19T16:49:16.570Z,19.47
2018-12-19T16:51:42.623Z,19.20
2018-12-19T16:54:08.570Z,21.93
2018-12-19T16:56:34.739Z,16.87
2018-12-19T16:59:07.966Z,19.77
2018-12-19T17:01:37.800Z,15.90
2018-12-19T17:04:03.973Z,20.13
2018-12-19T17:06:29.956Z,17.40
2018-12-19T17:08:56.365Z,20.13
2018-12-19T17:11:22.308Z,21.10
2018-12-19T17:13:48.314Z,25.07
2018-12-19T17:16:14.440Z,20.30
2018-12-19T17:18:41.629Z,21.63
2018-12-19T17:21:07.563Z,23.33
2018-12-19T17:23:40.462Z,20.77
2018-12-19T17:26:06.511Z,24.63
2018-12-19T17:28:32.473Z,17.50
2018-12-19T17:30:58.428Z,20.27
2018-12-19T17:33:31.461Z,20.83
2018-12-19T17:35:58.097Z,20.20
2018-12-19T17:38:26.802Z,17.73
2018-12-19T17:40:52.934Z,21.37
2018-12-19T17:43:18.910Z,23.27
2018-12-19T17:45:44.877Z,20.67
2018-12-19T17:48:10.815Z,29.57
2018-12-19T17:50:37.125Z,14.57
2018-12-19T17:53:03.362Z,24.33
2018-12-19T17:55:29.340Z,23.03
2018-12-19T17:57:55.292Z,23.80
2018-12-19T18:00:21.498Z,19.80
2018-12-19T18:02:47.533Z,19.80
2018-12-19T18:05:13.588Z,22.80
2018-12-19T18:07:39.539Z,20.70
2018-12-19T18:10:05.836Z,24.47
2018-12-19T18:12:31.792Z,29.23
2018-12-19T18:14:57.752Z,19.63
2018-12-19T18:17:23.706Z,23.50
2018-12-19T18:19:49.673Z,19.03
2018-12-19T18:22:15.641Z,22.27
2018-12-19T18:24:41.591Z,18.73
2018-12-19T18:27:07.569Z,17.23
2018-12-19T18:29:33.525Z,15.93
2018-12-19T18:34:31.323Z,24.87
2018-12-19T18:36:57.377Z,17.90
2018-12-19T18:39:26.301Z,20.87
2018-12-19T18:41:51.411Z,18.47
2018-12-19T18:44:17.390Z,17.77
2018-12-19T18:46:43.668Z,17.87
2018-12-19T18:49:09.721Z,17.90
2018-12-19T18:51:38.997Z,18.50
2018-12-19T18:54:05.063Z,21.03
2018-12-19T18:56:31.064Z,19.50
2018-12-19T18:58:57.046Z,22.87
2018-12-19T19:01:33.287Z,21.47
2018-12-19T19:03:59.372Z,18.53
2018-12-19T19:06:25.406Z,20.20
2018-12-19T19:08:51.370Z,20.40
2018-12-19T19:11:21.364Z,23.63
2018-12-19T19:13:47.332Z,21.70
2018-12-19T19:16:13.308Z,19.17
2018-12-19T19:18:39.461Z,26.03
2018-12-19T19:21:05.417Z,22.87
2018-12-19T19:23:31.519Z,21.87
2018-12-19T19:25:57.472Z,20.47
2018-12-19T19:28:23.469Z,22.27
2018-12-19T19:30:49.621Z,29.07
2018-12-19T19:33:15.585Z,24.10
2018-12-19T19:35:41.651Z,28.17
2018-12-19T19:38:07.588Z,24.90
2018-12-19T19:40:33.541Z,30.93
2018-12-19T19:42:59.483Z,26.77
2018-12-19T19:45:25.551Z,21.97
2018-12-19T19:47:51.509Z,29.50
2018-12-19T19:50:17.845Z,25.80
2018-12-19T19:52:43.822Z,29.63
2018-12-19T19:55:09.814Z,28.67
2018-12-19T19:57:36.403Z,26.03
2018-12-19T20:00:05.289Z,29.13
2018-12-19T20:02:31.235Z,30.13
2018-12-19T20:04:57.236Z,28.13
2018-12-19T20:07:23.306Z,28.60
2018-12-19T20:09:49.402Z,27.97
2018-12-19T20:12:15.359Z,25.37
2018-12-19T20:14:41.463Z,26.97
2018-12-19T20:17:07.736Z,25.37
2018-12-19T20:19:33.685Z,29.43
2018-12-19T20:21:59.669Z,33.93
2018-12-19T20:24:25.651Z,27.07
2018-12-19T20:26:51.708Z,31.53
2018-12-19T20:29:17.805Z,35.63
2018-12-19T20:31:43.877Z,32.37
2018-12-19T20:34:10.262Z,31.03
2018-12-19T20:36:36.327Z,33.10
2018-12-19T20:39:05.179Z,26.67
2018-12-19T20:41:34.919Z,26.87
2018-12-19T20:44:00.970Z,35.30
2018-12-19T20:46:27.169Z,25.17
2018-12-19T20:48:53.125Z,27.40
2018-12-19T20:51:22.258Z,22.63
2018-12-19T20:53:48.255Z,24.93
2018-12-19T20:56:14.300Z,25.20
2018-12-19T20:58:40.756Z,27.70
2018-12-19T21:01:08.772Z,31.30
2018-12-19T21:03:34.832Z,24.07
2018-12-19T21:06:07.995Z,27.80
2018-12-19T21:08:34.100Z,30.53
2018-12-19T21:11:00.228Z,27.63
2018-12-19T21:13:26.304Z,32.73
2018-12-19T21:15:52.546Z,30.47
2018-12-19T21:18:24.732Z,33.57
2018-12-19T21:20:51.795Z,37.10
2018-12-19T21:23:17.895Z,35.63
2018-12-19T21:25:43.939Z,28.83
2018-12-19T21:28:10.386Z,30.00
2018-12-19T21:30:37.111Z,32.77
2018-12-19T21:33:03.328Z,36.13
2018-12-19T21:35:29.348Z,28.87
2018-12-19T21:37:55.590Z,29.17
2018-12-19T21:40:21.814Z,42.30
2018-12-19T21:42:48.184Z,28.67
2018-12-19T21:45:14.432Z,24.67
2018-12-19T21:47:40.517Z,27.50
2018-12-19T21:50:06.796Z,29.00
2018-12-19T21:52:33.304Z,26.93
2018-12-19T21:54:59.420Z,30.97
2018-12-19T21:57:25.639Z,27.43
2018-12-19T21:59:51.724Z,28.27
2018-12-19T22:02:18.247Z,25.07
2018-12-19T22:04:44.408Z,26.73
2018-12-19T22:07:11.084Z,27.73
2018-12-19T22:09:37.681Z,29.93
2018-12-19T22:12:03.745Z,27.37
2018-12-19T22:14:30.193Z,30.07
2018-12-19T22:17:02.618Z,27.03
2018-12-19T22:19:28.811Z,28.73
2018-12-19T22:21:54.904Z,36.87
2018-12-19T22:24:21.010Z,33.13
2018-12-19T22:26:47.079Z,30.53
2018-12-19T22:29:13.156Z,32.60
2018-12-19T22:31:39.387Z,36.33
2018-12-19T22:34:05.431Z,30.63
2018-12-19T22:36:31.563Z,33.70
2018-12-19T22:38:57.921Z,32.37
2018-12-19T22:43:55.946Z,36.33
2018-12-19T22:46:22.087Z,39.27
2018-12-19T22:48:48.219Z,31.13
2018-12-19T22:51:14.465Z,40.70
2018-12-19T22:53:40.767Z,33.73
2018-12-19T22:56:06.954Z,30.37
2018-12-19T22:58:33.140Z,35.07
2018-12-19T23:01:10.084Z,33.83
2018-12-19T23:03:42.340Z,35.63
2018-12-19T23:06:08.390Z,36.03
2018-12-19T23:08:34.695Z,51.13
2018-12-19T23:11:01.080Z,43.17
2018-12-19T23:13:27.194Z,36.97
2018-12-19T23:15:53.534Z,39.87
2018-12-19T23:18:25.849Z,38.70
2018-12-19T23:20:52.288Z,44.10
2018-12-19T23:23:18.434Z,38.53
2018-12-19T23:25:44.744Z,37.80
2018-12-19T23:28:11.237Z,45.63
2018-12-19T23:30:37.355Z,43.03
2018-12-19T23:33:03.419Z,34.97
2018-12-19T23:35:29.412Z,43.27
2018-12-19T23:37:55.615Z,38.70
2018-12-19T23:40:22.127Z,35.60
2018-12-19T23:42:48.336Z,33.17
2018-12-19T23:45:14.606Z,37.90
2018-12-19T23:47:40.609Z,45.97
2018-12-19T23:50:06.856Z,33.67
2018-12-19T23:52:33.097Z,37.27
2018-12-19T23:54:59.104Z,32.97
2018-12-19T23:57:25.194Z,34.03
2018-12-19T23:59:51.297Z,34.40
